Time;durP1;ratioP1;P1;durP2;ratioP2;P2;SDS_P1;SDS_P2;PMS_P1;PMS_P2;Temp;Humidity;BMP_temperature;BMP_pressure;BME280_temperature;BME280_humidity;BME280_pressure;Samples;Min_cycle;Max_cycle;Signal;HPM_P1;HPM_P2
2022/08/27 00:00:32;;;;;;;13.38;4.85;;;;;;;18.85;81.25;100314.60;1716880;82;20932;-41
2022/08/27 00:02:59;;;;;;;14.83;5.05;;;;;;;18.86;81.75;100314.12;1714544;82;20985;-41
2022/08/27 00:05:26;;;;;;;11.60;4.50;;;;;;;18.84;81.85;100316.84;1714567;83;21534;-41
2022/08/27 00:07:54;;;;;;;18.95;4.72;;;;;;;18.83;81.56;100319.53;1714477;82;21274;-42
2022/08/27 00:10:24;;;;;;;14.50;4.87;;;;;;;18.80;81.37;100316.61;1703625;83;21152;-41
2022/08/27 00:12:53;;;;;;;9.65;4.05;;;;;;;18.77;82.02;100314.16;1680224;85;20952;-41
2022/08/27 00:15:20;;;;;;;13.50;4.55;;;;;;;18.75;84.40;100312.09;1697154;82;21044;-41
2022/08/27 00:17:47;;;;;;;18.35;4.50;;;;;;;18.70;84.10;100304.95;1757103;81;20935;-42
2022/08/27 00:20:16;;;;;;;9.10;4.55;;;;;;;18.71;83.51;100311.87;1743716;81;21433;-41
2022/08/27 00:22:43;;;;;;;14.73;4.60;;;;;;;18.70;82.04;100311.05;1659524;86;20936;-41
2022/08/27 00:25:11;;;;;;;8.25;4.70;;;;;;;18.71;79.45;100317.12;1674346;84;20940;-41
2022/08/27 00:27:37;;;;;;;9.98;4.33;;;;;;;18.72;77.75;100318.81;1675063;85;20996;-41
2022/08/27 00:30:08;;;;;;;14.65;4.62;;;;;;;18.72;76.18;100313.58;1700219;83;20998;-41
2022/08/27 00:32:35;;;;;;;8.68;4.17;;;;;;;18.72;73.90;100316.20;1666005;84;21156;-41
2022/08/27 00:35:03;;;;;;;9.78;4.58;;;;;;;18.72;71.91;100315.74;1659204;86;20901;-41
2022/08/27 00:37:31;;;;;;;10.13;4.10;;;;;;;18.71;71.19;100311.44;1634748;86;20975;-42
2022/08/27 00:39:58;;;;;;;8.93;4.50;;;;;;;18.71;70.73;100315.36;1659301;86;21055;-41
2022/08/27 00:42:25;;;;;;;10.05;3.98;;;;;;;18.69;70.76;100315.88;1659175;86;21086;-41
2022/08/27 00:44:52;;;;;;;10.23;3.87;;;;;;;18.67;69.79;100313.36;1677957;83;21249;-41
2022/08/27 00:47:23;;;;;;;11.08;3.75;;;;;;;18.63;67.71;100310.53;1666654;84;21026;-41
2022/08/27 00:50:00;;;;;;;10.90;3.80;;;;;;;18.64;67.31;100312.67;1697646;83;20905;-42
2022/08/27 00:52:34;;;;;;;9.60;3.83;;;;;;;18.64;66.12;100308.74;1681038;83;21549;-42
2022/08/27 00:55:09;;;;;;;16.48;4.67;;;;;;;18.64;64.00;100306.13;1659422;86;20968;-42
2022/08/27 00:57:37;;;;;;;9.03;3.70;;;;;;;18.70;62.60;100299.26;1659349;86;21284;-41
2022/08/27 01:00:08;;;;;;;17.65;4.37;;;;;;;18.74;62.70;100308.64;1659524;86;21001;-41
2022/08/27 01:02:35;;;;;;;14.20;4.17;;;;;;;18.73;62.45;100311.33;1711402;83;21011;-41
2022/08/27 01:05:09;;;;;;;14.98;4.45;;;;;;;18.69;63.65;100309.33;1722013;83;21055;-41
2022/08/27 01:07:40;;;;;;;8.38;3.67;;;;;;;18.63;63.35;100307.05;1722304;83;21038;-41
2022/08/27 01:10:12;;;;;;;14.43;3.87;;;;;;;18.59;63.83;100307.70;1712562;83;22088;-41
2022/08/27 01:12:39;;;;;;;23.92;4.60;;;;;;;18.54;63.47;100308.39;1692199;84;20918;-41
2022/08/27 01:15:10;;;;;;;12.58;4.17;;;;;;;18.49;63.44;100318.28;1690458;83;20990;-41
2022/08/27 01:17:38;;;;;;;9.03;3.47;;;;;;;18.40;64.27;100312.24;1664472;86;21443;-41
2022/08/27 01:20:09;;;;;;;16.30;3.92;;;;;;;18.30;64.46;100312.71;1664690;86;21010;-41
2022/08/27 01:22:47;;;;;;;12.23;4.12;;;;;;;18.24;63.47;100315.22;1640077;86;21250;-41
2022/08/27 01:25:15;;;;;;;8.03;3.45;;;;;;;18.19;63.84;100315.93;1664623;86;21012;-41
2022/08/27 01:27:44;;;;;;;13.03;3.33;;;;;;;18.13;63.99;100311.47;1664619;86;21042;-41
2022/08/27 01:30:14;;;;;;;14.83;4.03;;;;;;;18.08;63.70;100313.88;1691865;83;20881;-41
2022/08/27 01:32:42;;;;;;;16.02;3.65;;;;;;;18.06;63.72;100309.62;1721715;83;21485;-41
2022/08/27 01:35:10;;;;;;;8.23;3.62;;;;;;;18.02;63.05;100311.55;1722140;83;22022;-41
2022/08/27 01:37:37;;;;;;;10.03;3.50;;;;;;;18.01;63.75;100315.09;1695084;83;21062;-41
2022/08/27 01:40:05;;;;;;;9.25;3.72;;;;;;;17.97;66.48;100317.46;1692751;84;21521;-41
2022/08/27 01:42:42;;;;;;;15.48;4.37;;;;;;;17.87;68.09;100307.09;1692760;84;20953;-41
2022/08/27 01:45:20;;;;;;;9.50;3.87;;;;;;;17.81;65.60;100310.41;1692441;84;21561;-41
2022/08/27 01:47:47;;;;;;;8.65;3.77;;;;;;;17.86;64.71;100306.70;1692154;84;21732;-41
2022/08/27 01:50:18;;;;;;;11.50;3.92;;;;;;;17.94;63.38;100306.70;1694466;83;21284;-41
2022/08/27 01:52:45;;;;;;;9.98;3.62;;;;;;;18.10;62.02;100308.53;1692849;84;21012;-42
2022/08/27 01:55:14;;;;;;;13.13;3.83;;;;;;;18.27;60.80;100308.95;1692607;84;21527;-41
2022/08/27 01:57:42;;;;;;;14.10;4.22;;;;;;;18.42;60.39;100306.45;1690499;84;20953;-41
2022/08/27 02:00:14;;;;;;;14.68;4.85;;;;;;;18.55;59.40;100310.56;1692676;84;21305;-41
2022/08/27 02:02:41;;;;;;;13.40;4.00;;;;;;;18.62;58.83;100301.43;1691180;84;20956;-41
2022/08/27 02:05:09;;;;;;;17.62;4.05;;;;;;;18.69;58.92;100306.70;1692541;84;21011;-41
2022/08/27 02:07:37;;;;;;;16.07;4.20;;;;;;;18.74;59.12;100303.84;1667373;84;20980;-41
2022/08/27 02:10:06;;;;;;;13.00;4.30;;;;;;;18.78;58.19;100304.91;1693320;83;21048;-41
2022/08/27 02:12:33;;;;;;;11.78;4.08;;;;;;;18.84;58.23;100311.60;1692592;84;21138;-41
2022/08/27 02:15:04;;;;;;;7.65;4.25;;;;;;;18.85;57.56;100305.42;1692647;84;21441;-41
2022/08/27 02:17:31;;;;;;;13.93;4.37;;;;;;;18.87;57.00;100308.80;1685684;84;20931;-41
2022/08/27 02:19:59;;;;;;;18.55;4.92;;;;;;;18.90;57.17;100309.08;1705969;83;21578;-41
2022/08/27 02:22:27;;;;;;;13.95;4.35;;;;;;;18.91;57.37;100312.94;1718165;82;20996;-41
2022/08/27 02:24:54;;;;;;;10.13;4.47;;;;;;;18.91;57.22;100307.70;1719916;83;22142;-41
2022/08/27 02:27:21;;;;;;;13.95;4.58;;;;;;;18.91;56.46;100320.81;1683026;85;20917;-41
2022/08/27 02:29:51;;;;;;;8.90;4.40;;;;;;;18.93;56.28;100314.15;1719944;83;20987;-41
2022/08/27 02:32:17;;;;;;;15.15;4.22;;;;;;;18.94;56.31;100315.39;1720211;82;20944;-41
2022/08/27 02:34:44;;;;;;;19.80;4.90;;;;;;;18.95;55.66;100318.39;1743089;82;20919;-41
2022/08/27 02:37:10;;;;;;;19.45;4.83;;;;;;;18.98;56.81;100313.90;1745317;82;21508;-41
2022/08/27 02:39:37;;;;;;;11.15;4.58;;;;;;;18.95;56.80;100321.02;1700645;82;20934;-41
2022/08/27 02:42:05;;;;;;;17.65;4.92;;;;;;;18.92;56.81;100319.02;1749774;82;20939;-41
2022/08/27 02:44:34;;;;;;;14.65;4.90;;;;;;;18.90;56.20;100317.80;1721897;82;20983;-41
2022/08/27 02:47:01;;;;;;;16.35;4.87;;;;;;;18.90;56.18;100317.80;1705126;83;20931;-41
2022/08/27 02:49:29;;;;;;;20.77;4.75;;;;;;;18.89;56.57;100320.50;1716996;82;21232;-41
2022/08/27 02:51:56;;;;;;;15.30;4.75;;;;;;;18.89;55.76;100324.44;1700544;82;20986;-41
2022/08/27 02:54:24;;;;;;;16.25;5.22;;;;;;;18.91;56.11;100321.26;1679718;85;20995;-41
2022/08/27 02:56:51;;;;;;;11.45;4.50;;;;;;;18.91;55.93;100322.13;1718203;83;20976;-41
2022/08/27 02:59:18;;;;;;;12.53;5.45;;;;;;;18.93;55.30;100325.95;1682432;85;21498;-41
2022/08/27 03:01:45;;;;;;;11.05;5.05;;;;;;;18.96;55.27;100324.50;1718316;82;21140;-41
2022/08/27 03:04:13;;;;;;;13.45;5.00;;;;;;;18.96;55.47;100320.08;1718288;83;20940;-41
2022/08/27 03:06:40;;;;;;;13.43;4.65;;;;;;;18.95;55.12;100326.26;1715414;82;20956;-41
2022/08/27 03:09:09;;;;;;;18.15;4.85;;;;;;;18.95;54.75;100328.87;1718289;83;20945;-41
2022/08/27 03:11:36;;;;;;;15.90;5.35;;;;;;;18.98;54.63;100334.88;1701607;83;21462;-41
2022/08/27 03:14:03;;;;;;;14.38;5.10;;;;;;;18.98;54.88;100334.88;1712707;83;21184;-41
2022/08/27 03:16:35;;;;;;;20.27;5.03;;;;;;;18.95;55.94;100335.44;1701664;82;21170;-41
2022/08/27 03:19:09;;;;;;;19.60;5.50;;;;;;;18.96;54.83;100329.73;1676148;83;20999;-41
2022/08/27 03:21:33;;;;;;;16.55;5.50;;;;;;;18.97;54.46;100328.81;1675506;83;21048;-41
2022/08/27 03:24:01;;;;;;;16.17;4.92;;;;;;;18.99;54.44;100330.91;1676686;83;20998;-41
2022/08/27 03:26:28;;;;;;;15.70;5.35;;;;;;;19.00;55.16;100331.73;1676916;83;21075;-41
2022/08/27 03:28:55;;;;;;;15.40;5.65;;;;;;;19.00;55.17;100337.84;1686198;83;20955;-41
2022/08/27 03:31:28;;;;;;;28.07;6.58;;;;;;;19.02;55.82;100333.81;1676653;83;20998;-41
2022/08/27 03:33:58;;;;;;;17.55;6.12;;;;;;;19.01;55.42;100338.22;1659387;83;20995;-41
2022/08/27 03:36:26;;;;;;;17.45;6.03;;;;;;;19.05;55.84;100337.56;1676719;83;21003;-41
2022/08/27 03:38:53;;;;;;;14.15;5.50;;;;;;;19.08;55.38;100342.19;1676547;83;21386;-41
2022/08/27 03:41:20;;;;;;;21.87;7.05;;;;;;;19.14;53.79;100335.76;1707429;83;21494;-40
2022/08/27 03:43:47;;;;;;;16.42;6.60;;;;;;;19.22;53.87;100338.78;1688391;83;20916;-41
2022/08/27 03:46:13;;;;;;;17.05;6.45;;;;;;;19.30;53.47;100333.55;1676574;83;21010;-41
2022/08/27 03:48:41;;;;;;;17.32;5.80;;;;;;;19.38;52.78;100336.61;1676232;83;20963;-40
2022/08/27 03:51:10;;;;;;;18.62;6.65;;;;;;;19.47;52.23;100332.61;1685721;83;21309;-41
2022/08/27 03:53:39;;;;;;;21.40;5.95;;;;;;;19.54;52.03;100337.88;1676389;83;20944;-41
2022/08/27 03:56:07;;;;;;;23.52;5.90;;;;;;;19.61;52.47;100337.89;1676507;83;21501;-41
2022/08/27 03:58:35;;;;;;;23.98;5.20;;;;;;;19.66;52.40;100337.62;1659403;83;21015;-41
2022/08/27 04:01:04;;;;;;;22.20;6.50;;;;;;;19.71;52.60;100338.68;1676127;83;20987;-41
2022/08/27 04:03:31;;;;;;;17.20;5.65;;;;;;;19.73;53.06;100338.95;1712839;83;21166;-41
2022/08/27 04:05:58;;;;;;;15.15;6.15;;;;;;;19.74;53.18;100330.13;1712478;82;20909;-41
2022/08/27 04:08:26;;;;;;;15.55;6.17;;;;;;;19.76;53.61;100334.83;1712632;83;20984;-41
2022/08/27 04:10:53;;;;;;;25.23;7.12;;;;;;;19.79;54.07;100331.19;1712860;83;21067;-41
2022/08/27 04:13:22;;;;;;;27.37;6.42;;;;;;;19.81;54.16;100332.77;1694094;83;21046;-41
2022/08/27 04:15:50;;;;;;;19.57;6.75;;;;;;;19.86;55.22;100323.80;1676296;83;21516;-41
2022/08/27 04:18:18;;;;;;;20.23;6.05;;;;;;;19.92;56.65;100328.22;1687654;83;20971;-41
2022/08/27 04:20:47;;;;;;;25.40;6.40;;;;;;;20.01;55.16;100320.75;1678182;85;21023;-41
2022/08/27 04:23:14;;;;;;;23.00;6.10;;;;;;;20.11;52.14;100328.44;1718774;82;21557;-42
2022/08/27 04:25:41;;;;;;;25.43;7.45;;;;;;;20.23;51.20;100326.84;1693319;82;21436;-41
2022/08/27 04:28:09;;;;;;;26.23;5.80;;;;;;;20.32;49.36;100318.38;1691394;83;21230;-41
2022/08/27 04:30:41;;;;;;;28.60;6.03;;;;;;;20.39;48.16;100314.46;1678151;85;20932;-41
2022/08/27 04:33:09;;;;;;;33.02;5.80;;;;;;;20.49;46.02;100316.50;1718403;82;21084;-41
2022/08/27 04:35:36;;;;;;;28.07;5.37;;;;;;;20.63;42.54;100312.55;1704405;82;20964;-41
2022/08/27 04:38:03;;;;;;;24.95;5.17;;;;;;;20.84;43.05;100313.48;1680744;85;21425;-41
2022/08/27 04:43:16;;;;;;;24.52;6.05;;;;;;;21.20;44.37;100315.98;1681150;83;21079;-41
2022/08/27 04:45:44;;;;;;;29.18;5.72;;;;;;;21.40;43.38;100309.88;1719816;83;20967;-41
2022/08/27 04:48:14;;;;;;;33.98;6.00;;;;;;;21.56;44.68;100304.42;1722989;82;21004;-41
2022/08/27 04:50:43;;;;;;;22.25;5.35;;;;;;;21.71;43.40;100299.08;1748065;82;20995;-41
2022/08/27 04:53:11;;;;;;;36.38;5.60;;;;;;;21.83;43.77;100295.63;1747825;81;21213;-41
2022/08/27 04:55:49;;;;;;;31.68;5.60;;;;;;;21.88;44.34;100285.61;1750216;82;21652;-41
2022/08/27 04:58:17;;;;;;;32.83;6.15;;;;;;;21.90;41.38;100296.05;1724557;82;20972;-41
2022/08/27 05:00:47;;;;;;;24.65;5.08;;;;;;;21.87;39.38;100294.46;1729444;82;21634;-41
2022/08/27 05:03:16;;;;;;;22.50;5.33;;;;;;;21.88;39.93;100299.27;1694875;83;20907;-41
2022/08/27 05:05:43;;;;;;;24.77;5.00;;;;;;;21.85;40.18;100299.45;1680696;85;21101;-41
2022/08/27 05:08:11;;;;;;;24.55;5.00;;;;;;;21.83;40.34;100304.84;1694255;83;20966;-41
2022/08/27 05:10:43;;;;;;;25.95;5.37;;;;;;;21.81;40.77;100314.16;1691213;83;21002;-41
2022/08/27 05:13:10;;;;;;;32.45;6.20;;;;;;;21.79;41.12;100310.78;1682160;85;20963;-41
2022/08/27 05:15:39;;;;;;;28.77;5.60;;;;;;;21.77;40.91;100305.27;1691467;82;20971;-41
2022/08/27 05:18:07;;;;;;;21.77;5.60;;;;;;;21.74;42.11;100304.17;1675172;84;21966;-41
2022/08/27 05:20:47;;;;;;;28.83;5.45;;;;;;;21.74;41.28;100306.80;1712452;82;20882;-41
2022/08/27 05:23:16;;;;;;;21.45;5.78;;;;;;;21.73;40.41;100307.75;1712532;82;20909;-41
2022/08/27 05:25:45;;;;;;;20.97;5.53;;;;;;;21.72;41.50;100300.30;1712678;82;20941;-41
2022/08/27 05:28:13;;;;;;;21.40;5.90;;;;;;;21.71;42.22;100299.08;1712812;83;20984;-41
2022/08/27 05:33:22;;;;;;;23.62;5.30;;;;;;;21.79;42.30;100296.30;1801786;79;22560;-41
2022/08/27 05:35:54;;;;;;;27.27;5.47;;;;;;;21.78;42.59;100297.73;1756870;81;20908;-41
2022/08/27 05:38:21;;;;;;;24.82;5.60;;;;;;;21.80;42.14;100296.66;1757589;81;21513;-42
2022/08/27 05:40:48;;;;;;;43.33;5.92;;;;;;;21.85;40.88;100294.19;1751480;81;21002;-42
2022/08/27 05:43:16;;;;;;;24.90;4.53;;;;;;;21.90;41.97;100294.73;1757809;81;20980;-40
2022/08/27 05:45:47;;;;;;;24.95;5.25;;;;;;;21.95;41.78;100293.45;1757511;81;21019;-39
2022/08/27 05:48:15;;;;;;;14.50;4.62;;;;;;;22.02;41.84;100291.73;1757230;81;20877;-41
2022/08/27 05:50:42;;;;;;;20.97;5.08;;;;;;;22.10;40.16;100290.25;1723567;83;21955;-41
2022/08/27 05:53:11;;;;;;;26.12;5.67;;;;;;;22.21;40.42;100287.33;1723433;83;20966;-41
2022/08/27 05:55:42;;;;;;;23.27;4.78;;;;;;;22.32;39.76;100283.94;1714794;83;21536;-41
2022/08/27 06:03:27;;;;;;;;;;;;;;;22.70;37.18;100287.45;1680940;84;21320;-41
2022/08/27 06:06:02;;;;;;;21.35;4.12;;;;;;;22.82;38.62;100299.73;1632498;86;20140;-40
2022/08/27 06:08:29;;;;;;;;;;;;;;;22.88;37.37;100296.67;1662260;86;21011;-41
2022/08/27 06:10:56;;;;;;;27.55;4.20;;;;;;;22.99;35.63;100305.13;1657686;86;20183;-41
2022/08/27 06:13:23;;;;;;;29.27;5.00;;;;;;;23.12;36.61;100305.06;1639824;85;21082;-41
2022/08/27 06:16:12;;;;;;;19.65;3.85;;;;;;;23.24;37.66;100308.09;1679524;85;21257;-41
2022/08/27 06:18:38;;;;;;;19.45;4.08;;;;;;;23.36;34.93;100297.59;1696167;83;20920;-42
2022/08/27 06:21:06;;;;;;;17.73;3.98;;;;;;;23.49;36.41;100301.01;1692811;84;21027;-42
2022/08/27 06:23:35;;;;;;;26.97;4.78;;;;;;;23.59;35.05;100291.05;1694778;84;20955;-42
2022/08/27 06:26:07;;;;;;;21.85;4.10;;;;;;;23.67;34.83;100296.61;1694835;84;21032;-42
2022/08/27 06:28:34;;;;;;;21.97;4.00;;;;;;;23.73;34.88;100290.85;1680492;84;21166;-42
2022/08/27 06:31:14;;;;;;;15.05;3.90;;;;;;;23.87;32.20;100291.11;1689739;85;20920;-42
2022/08/27 06:33:41;;;;;;;13.43;3.58;;;;;;;24.00;32.90;100295.42;1689651;85;21047;-42
2022/08/27 06:36:13;;;;;;;16.65;3.42;;;;;;;24.08;34.37;100303.16;1697349;84;20977;-42
2022/08/27 06:38:41;;;;;;;25.88;3.92;;;;;;;24.15;34.35;100296.09;1689441;85;20971;-43
2022/08/27 06:41:10;;;;;;;16.40;4.10;;;;;;;24.25;35.28;100300.53;1692977;83;21268;-41
2022/08/27 06:43:38;;;;;;;17.48;4.22;;;;;;;24.36;31.56;100296.19;1697262;84;21508;-42
2022/08/27 06:46:07;;;;;;;22.48;3.40;;;;;;;24.47;32.41;100297.48;1689651;85;21007;-42
2022/08/27 06:48:34;;;;;;;21.15;3.40;;;;;;;24.59;29.69;100282.43;1689370;85;21478;-42
2022/08/27 06:51:07;;;;;;;16.95;3.30;;;;;;;24.67;31.44;100286.64;1689358;85;21039;-42
2022/08/27 06:53:35;;;;;;;16.87;3.85;;;;;;;24.72;31.97;100273.02;1689687;83;21957;-42
2022/08/27 06:56:03;;;;;;;20.15;3.70;;;;;;;24.82;32.62;100283.26;1666738;86;20954;-41
2022/08/27 06:58:32;;;;;;;17.95;3.95;;;;;;;24.90;31.01;100277.81;1706333;83;21019;-42
2022/08/27 07:00:59;;;;;;;18.85;3.98;;;;;;;24.99;31.47;100278.87;1685661;84;20987;-42
2022/08/27 07:03:26;;;;;;;20.68;4.80;;;;;;;25.04;32.71;100283.30;1684420;84;20976;-42
2022/08/27 07:05:53;;;;;;;23.10;3.92;;;;;;;25.11;31.68;100283.12;1694612;84;21357;-41
2022/08/27 07:08:20;;;;;;;18.23;2.92;;;;;;;25.18;30.51;100279.03;1694253;84;21587;-42
2022/08/27 07:10:47;;;;;;;19.90;3.70;;;;;;;25.24;31.87;100278.52;1694525;84;20932;-41
2022/08/27 07:13:15;;;;;;;12.00;3.67;;;;;;;25.32;31.39;100283.64;1694256;84;20979;-42
2022/08/27 07:15:43;;;;;;;14.13;3.70;;;;;;;25.35;30.71;100273.64;1694524;84;20924;-42
2022/08/27 07:18:10;;;;;;;20.85;4.28;;;;;;;25.42;30.34;100273.97;1639381;84;21993;-41
2022/08/27 07:20:40;;;;;;;17.42;3.77;;;;;;;25.51;30.61;100273.68;1701357;84;21000;-42
2022/08/27 07:23:07;;;;;;;21.35;4.10;;;;;;;25.59;30.33;100270.39;1691175;84;20925;-42
2022/08/27 07:25:35;;;;;;;12.00;4.08;;;;;;;25.68;31.65;100263.82;1682563;84;20921;-42
2022/08/27 07:28:02;;;;;;;21.73;4.20;;;;;;;25.79;30.77;100254.13;1682280;83;21526;-42
2022/08/27 07:30:30;;;;;;;17.92;3.80;;;;;;;25.94;30.22;100257.26;1694758;84;21936;-42
2022/08/27 07:32:58;;;;;;;20.48;3.35;;;;;;;26.13;32.11;100251.65;1683348;84;21003;-42
2022/08/27 07:35:25;;;;;;;17.55;3.22;;;;;;;26.29;29.68;100246.71;1679951;84;21482;-42
2022/08/27 07:37:51;;;;;;;14.23;3.60;;;;;;;26.43;29.49;100248.64;1712157;83;20996;-42
2022/08/27 07:40:19;;;;;;;14.73;3.45;;;;;;;26.58;28.08;100237.96;1712045;82;20933;-41
2022/08/27 07:45:31;;;;;;;18.02;3.70;;;;;;;26.82;27.95;100243.36;1714530;82;20940;-42
2022/08/27 07:47:58;;;;;;;13.75;3.12;;;;;;;26.93;28.04;100247.25;1713900;82;21028;-42
2022/08/27 07:50:25;;;;;;;19.10;3.75;;;;;;;27.10;28.37;100236.87;1714376;83;20996;-42
2022/08/27 07:52:52;;;;;;;17.70;3.92;;;;;;;27.24;29.90;100237.77;1714550;82;21465;-42
2022/08/27 07:55:19;;;;;;;16.85;3.22;;;;;;;27.42;28.66;100238.38;1712550;82;21075;-42
2022/08/27 07:57:47;;;;;;;26.00;4.00;;;;;;;27.56;29.20;100244.23;1666494;83;20991;-42
2022/08/27 08:00:14;;;;;;;15.70;3.45;;;;;;;27.66;27.75;100241.04;1714410;82;20936;-42
2022/08/27 08:02:43;;;;;;;13.20;3.00;;;;;;;27.75;26.62;100237.53;1704381;83;20920;-42
2022/08/27 08:05:11;;;;;;;14.45;3.62;;;;;;;27.87;25.94;100235.52;1714595;83;21585;-42
2022/08/27 08:07:38;;;;;;;7.87;3.15;;;;;;;27.94;26.63;100237.10;1696944;83;21261;-42
2022/08/27 08:10:07;;;;;;;11.65;3.27;;;;;;;28.07;27.61;100234.92;1684399;83;21506;-42
2022/08/27 08:12:36;;;;;;;11.80;3.72;;;;;;;28.26;28.01;100234.51;1684969;82;20944;-42
2022/08/27 08:15:07;;;;;;;16.87;3.35;;;;;;;28.45;26.63;100228.22;1716006;82;20996;-42
2022/08/27 08:17:35;;;;;;;16.27;3.70;;;;;;;28.62;26.78;100226.55;1714522;82;20968;-42
2022/08/27 08:20:03;;;;;;;17.17;3.42;;;;;;;28.75;25.24;100225.34;1714424;82;21134;-42
2022/08/27 08:22:30;;;;;;;13.35;2.95;;;;;;;28.79;24.55;100214.23;1714692;82;21483;-42
2022/08/27 08:24:57;;;;;;;17.77;3.30;;;;;;;28.86;25.45;100223.79;1714557;82;20890;-42
2022/08/27 08:27:24;;;;;;;14.30;3.20;;;;;;;28.91;24.44;100214.02;1714963;82;20902;-42
2022/08/27 08:29:51;;;;;;;20.37;3.85;;;;;;;28.85;25.04;100224.78;1714593;82;20979;-42
2022/08/27 08:32:20;;;;;;;14.80;3.22;;;;;;;28.82;25.24;100224.61;1714482;82;21245;-42
2022/08/27 08:34:47;;;;;;;14.05;3.33;;;;;;;28.90;26.57;100219.00;1712429;82;20980;-42
2022/08/27 08:37:14;;;;;;;13.88;3.37;;;;;;;29.10;25.52;100219.17;1714527;82;20968;-42
2022/08/27 08:39:41;;;;;;;12.40;3.08;;;;;;;29.33;25.99;100217.32;1714490;83;20901;-42
2022/08/27 08:42:20;;;;;;;12.50;3.15;;;;;;;29.54;24.79;100217.45;1714561;82;20936;-42
2022/08/27 08:44:48;;;;;;;25.90;3.72;;;;;;;29.69;25.46;100217.72;1711921;82;21024;-42
2022/08/27 08:47:32;;;;;;;13.83;3.30;;;;;;;29.81;24.39;100215.09;1712713;83;20928;-42
2022/08/27 08:50:22;;;;;;;19.77;3.30;;;;;;;29.95;23.83;100220.31;1714513;82;21036;-40
2022/08/27 08:53:00;;;;;;;14.78;2.90;;;;;;;30.12;25.62;100215.07;1714508;83;21027;-40
2022/08/27 08:56:00;;;;;;;11.57;2.37;;;;;;;30.37;25.46;100214.61;1714513;82;20980;-40
2022/08/27 08:58:54;;;;;;;12.90;3.30;;;;;;;30.43;24.55;100216.28;1714637;82;21206;-40
2022/08/27 09:01:21;;;;;;;12.68;3.10;;;;;;;30.61;25.09;100214.34;1714528;83;21493;-41
2022/08/27 09:04:03;;;;;;;11.38;2.98;;;;;;;30.84;24.76;100210.19;1707573;82;20996;-40
2022/08/27 09:06:59;;;;;;;33.70;3.10;;;;;;;31.01;23.56;100201.66;1726605;82;20876;-40
2022/08/27 09:09:37;;;;;;;15.03;2.90;;;;;;;31.01;22.63;100209.67;1717350;82;21060;-42
2022/08/27 09:12:17;;;;;;;15.32;2.65;;;;;;;31.09;22.60;100192.29;1729424;81;21245;-42
2022/08/27 09:14:57;;;;;;;12.73;2.17;;;;;;;31.14;22.52;100208.64;1733784;82;20956;-42
2022/08/27 09:17:24;;;;;;;11.78;2.45;;;;;;;31.08;20.77;100187.95;1745539;82;20876;-42
2022/08/27 09:19:51;;;;;;;9.68;2.50;;;;;;;31.06;21.72;100200.64;1743814;82;20971;-41
2022/08/27 09:22:58;;;;;;;18.00;2.30;;;;;;;31.18;23.28;100203.28;1725577;81;21706;-42
2022/08/27 09:25:37;;;;;;;12.75;3.55;;;;;;;31.45;22.28;100200.42;1736456;82;21802;-41
2022/08/27 09:31:06;;;;;;;14.07;2.60;;;;;;;32.01;22.80;100207.58;1722288;82;21011;-42
2022/08/27 09:33:33;;;;;;;22.80;2.75;;;;;;;32.31;22.55;100193.86;1694891;83;20923;-42
2022/08/27 09:36:02;;;;;;;8.85;2.58;;;;;;;32.54;21.25;100206.45;1691814;84;20958;-42
2022/08/27 09:38:33;;;;;;;12.28;2.45;;;;;;;32.68;21.32;100208.33;1691623;84;21048;-42
2022/08/27 09:41:10;;;;;;;11.22;2.72;;;;;;;32.58;20.17;100214.45;1693460;83;21053;-41
2022/08/27 09:43:42;;;;;;;16.32;2.50;;;;;;;32.53;20.58;100213.64;1695501;83;20985;-41
2022/08/27 09:46:18;;;;;;;8.05;2.60;;;;;;;32.56;20.55;100219.16;1717833;83;21511;-41
2022/08/27 09:48:45;;;;;;;16.77;2.40;;;;;;;32.67;21.87;100221.92;1708261;83;21005;-41
2022/08/27 09:51:16;;;;;;;9.98;2.20;;;;;;;32.80;22.56;100222.12;1733956;82;21845;-41
2022/08/27 09:53:58;;;;;;;13.45;2.50;;;;;;;32.96;21.52;100221.18;1717914;83;20997;-42
2022/08/27 09:56:35;;;;;;;8.83;2.35;;;;;;;33.10;21.87;100231.63;1731134;80;21445;-41
2022/08/27 09:59:11;;;;;;;11.57;2.40;;;;;;;33.21;20.52;100221.47;1740567;82;21786;-41
2022/08/27 10:02:01;;;;;;;17.05;2.83;;;;;;;33.35;21.36;100217.13;1691862;83;20959;-42
2022/08/27 10:04:39;;;;;;;13.05;2.47;;;;;;;33.44;22.64;100219.25;1699284;82;21262;-43
2022/08/27 10:07:28;;;;;;;11.95;3.00;;;;;;;33.53;20.46;100221.66;1713649;83;20901;-42
2022/08/27 10:10:19;;;;;;;15.70;2.80;;;;;;;33.36;18.89;100225.50;1706412;82;21051;-42
2022/08/27 10:13:17;;;;;;;9.88;2.80;;;;;;;33.17;19.87;100226.87;1685153;83;21414;-42
2022/08/27 10:16:18;;;;;;;17.73;2.47;;;;;;;33.19;22.41;100220.82;1713163;82;20936;-42
2022/08/27 10:19:00;;;;;;;13.78;2.52;;;;;;;33.35;22.65;100219.81;1713990;82;21252;-42
2022/08/27 10:21:43;;;;;;;9.00;2.75;;;;;;;33.57;21.63;100215.39;1710326;83;20982;-42
2022/08/27 10:24:24;;;;;;;16.10;2.85;;;;;;;33.75;21.92;100223.08;1693919;82;21541;-42
2022/08/27 10:27:02;;;;;;;14.03;2.80;;;;;;;33.94;23.01;100215.44;1710989;81;20992;-42
2022/08/27 10:29:59;;;;;;;16.87;3.12;;;;;;;34.16;22.24;100212.33;1718475;82;20880;-42
2022/08/27 10:32:52;;;;;;;8.45;2.37;;;;;;;34.32;20.95;100222.00;1697999;81;22013;-42
2022/08/27 10:35:39;;;;;;;15.10;2.50;;;;;;;34.28;18.93;100218.03;1719574;82;21505;-42
2022/08/27 10:38:39;;;;;;;25.95;6.25;;;;;;;34.18;22.17;100222.37;1719795;83;20896;-42
2022/08/27 10:41:30;;;;;;;15.13;3.12;;;;;;;34.32;22.83;100222.49;1698587;82;20983;-42
2022/08/27 10:44:24;;;;;;;27.85;3.10;;;;;;;34.50;23.27;100224.27;1706937;82;21193;-42
2022/08/27 10:47:13;;;;;;;5.53;2.35;;;;;;;34.47;22.66;100225.12;1653092;83;21296;-42
2022/08/27 10:49:58;;;;;;;7.28;2.72;;;;;;;34.25;23.72;100221.10;1722280;83;21002;-42
2022/08/27 10:52:32;;;;;;;13.60;2.50;;;;;;;34.28;23.10;100226.59;1722529;83;20978;-42
2022/08/27 10:55:16;;;;;;;21.97;2.85;;;;;;;34.22;22.59;100222.80;1722441;83;21007;-42
2022/08/27 10:58:08;;;;;;;28.42;7.53;;;;;;;34.21;25.06;100222.48;1722571;83;20904;-43
2022/08/27 11:00:59;;;;;;;15.23;3.22;;;;;;;34.35;25.83;100217.58;1722438;82;21159;-41
2022/08/27 11:03:53;;;;;;;7.65;2.85;;;;;;;34.31;24.25;100208.25;1722436;83;21508;-40
2022/08/27 11:06:57;;;;;;;7.05;2.92;;;;;;;34.15;24.51;100212.51;1722752;81;21057;-42
2022/08/27 11:09:31;;;;;;;12.75;3.00;;;;;;;34.19;23.89;100216.47;1722684;83;20971;-42
2022/08/27 11:11:59;;;;;;;14.15;3.42;;;;;;;34.29;24.43;100217.50;1722348;83;21049;-42
2022/08/27 11:14:46;;;;;;;13.93;2.72;;;;;;;34.34;24.86;100213.73;1696286;83;21876;-42
2022/08/27 11:17:38;;;;;;;9.90;3.08;;;;;;;34.43;24.37;100213.09;1706334;83;20965;-42
2022/08/27 11:20:30;;;;;;;11.08;3.30;;;;;;;34.58;24.17;100204.50;1722336;83;20955;-43
2022/08/27 11:23:10;;;;;;;12.60;2.85;;;;;;;34.66;24.94;100205.70;1722426;83;21481;-41
2022/08/27 11:25:55;;;;;;;7.78;2.60;;;;;;;34.76;24.97;100204.56;1722279;83;20982;-42
2022/08/27 11:28:38;;;;;;;8.78;2.85;;;;;;;34.72;23.45;100197.88;1722935;83;21057;-42
2022/08/27 11:31:22;;;;;;;10.58;2.77;;;;;;;34.65;24.49;100208.59;1720057;83;21525;-41
2022/08/27 11:34:19;;;;;;;12.33;3.00;;;;;;;34.77;23.96;100203.53;1721225;81;20904;-42
2022/08/27 11:37:11;;;;;;;5.75;2.70;;;;;;;34.66;24.06;100204.36;1719828;83;21551;-42
2022/08/27 11:39:52;;;;;;;10.70;2.90;;;;;;;34.53;23.75;100199.70;1719934;83;20991;-42
2022/08/27 11:42:44;;;;;;;13.78;2.75;;;;;;;34.51;23.07;100194.22;1701022;83;21174;-43
2022/08/27 11:45:39;;;;;;;10.75;2.90;;;;;;;34.46;23.27;100193.41;1719515;82;21509;-42
2022/08/27 11:48:32;;;;;;;14.65;2.87;;;;;;;34.37;23.84;100181.15;1719687;82;20987;-42
2022/08/27 11:51:16;;;;;;;12.60;2.60;;;;;;;34.30;24.66;100177.05;1717776;82;20959;-42
2022/08/27 11:53:58;;;;;;;13.62;2.92;;;;;;;34.21;25.34;100184.89;1717415;83;20967;-42
2022/08/27 11:56:35;;;;;;;16.52;3.10;;;;;;;34.25;24.63;100182.98;1716612;83;22018;-42
2022/08/27 11:59:31;;;;;;;16.05;2.25;;;;;;;34.45;25.35;100180.16;1719590;83;20992;-43